Time;durP1;ratioP1;P1;durP2;ratioP2;P2;SDS_P1;SDS_P2;PMS_P1;PMS_P2;Temp;Humidity;BMP_temperature;BMP_pressure;BME280_temperature;BME280_humidity;BME280_pressure;Samples;Min_cycle;Max_cycle;Signal;HPM_P1;HPM_P2
2022/12/02 00:00:26;;;;;;;2.38;2.28;;;;;;;4.53;73.59;101936.19;5199136;28;20038;-83
2022/12/02 00:02:57;;;;;;;1.55;1.50;;;;;;;4.56;73.26;101923.22;5201912;28;20091;-83
2022/12/02 00:05:49;;;;;;;2.45;2.22;;;;;;;4.34;73.06;101918.50;5185915;28;20044;-82
2022/12/02 00:08:24;;;;;;;4.10;3.75;;;;;;;4.36;73.54;101920.28;5166562;28;20071;-84
2022/12/02 00:10:56;;;;;;;2.70;2.50;;;;;;;4.41;73.64;101913.44;5179735;28;20033;-83
2022/12/02 00:13:35;;;;;;;1.63;1.52;;;;;;;4.46;73.86;101921.34;5192124;28;20053;-83
2022/12/02 00:16:18;;;;;;;2.45;2.35;;;;;;;4.44;73.65;101916.94;5199799;28;20077;-84
2022/12/02 00:18:49;;;;;;;2.67;2.47;;;;;;;4.16;73.13;101919.03;5181190;28;20045;-82
2022/12/02 00:21:21;;;;;;;1.30;1.23;;;;;;;4.24;73.38;101922.66;5165348;28;20122;-84
2022/12/02 00:23:51;;;;;;;1.45;1.38;;;;;;;4.38;73.31;101910.78;5196602;28;20075;-83
2022/12/02 00:26:22;;;;;;;5.53;5.03;;;;;;;4.39;73.93;101915.13;5176716;28;20029;-84
2022/12/02 00:28:53;;;;;;;1.17;1.17;;;;;;;4.17;73.73;101908.69;5186065;28;20041;-83
2022/12/02 00:31:23;;;;;;;2.60;2.42;;;;;;;4.32;74.31;101902.00;5169574;28;20017;-83
2022/12/02 00:33:56;;;;;;;4.57;4.15;;;;;;;4.40;73.77;101906.50;5166095;28;20427;-83
2022/12/02 00:36:28;;;;;;;2.47;2.38;;;;;;;4.23;73.21;101908.78;5195966;28;20025;-83
2022/12/02 00:38:58;;;;;;;6.05;3.90;;;;;;;4.39;73.05;101902.16;5183888;28;20041;-84
2022/12/02 00:41:29;;;;;;;5.97;2.67;;;;;;;4.25;73.18;101906.22;5197524;28;20036;-82
2022/12/02 00:46:49;;;;;;;2.47;2.28;;;;;;;4.29;73.75;101892.44;5180111;28;20036;-82
2022/12/02 00:49:19;;;;;;;4.88;4.10;;;;;;;4.19;73.73;101895.69;5195088;28;20037;-82
2022/12/02 00:51:50;;;;;;;1.83;1.73;;;;;;;4.45;73.45;101884.91;5176531;28;20093;-83
2022/12/02 00:54:20;;;;;;;1.50;1.48;;;;;;;4.36;73.43;101883.88;5191347;28;20797;-83
2022/12/02 00:56:51;;;;;;;4.18;2.67;;;;;;;4.12;73.64;101883.44;5195995;28;20071;-82
2022/12/02 00:59:21;;;;;;;3.03;2.83;;;;;;;4.25;72.67;101890.66;5197730;28;20041;-84
2022/12/02 01:01:52;;;;;;;5.05;2.83;;;;;;;4.09;73.42;101885.13;5180490;28;20053;-82
2022/12/02 01:04:22;;;;;;;2.33;2.15;;;;;;;4.04;73.84;101876.41;5186438;28;20044;-81
2022/12/02 01:06:53;;;;;;;1.42;1.35;;;;;;;3.87;74.21;101877.78;5195439;28;20095;-83
2022/12/02 01:09:24;;;;;;;1.77;1.67;;;;;;;3.91;73.94;101882.22;5181621;28;20745;-83
2022/12/02 01:11:54;;;;;;;3.45;3.15;;;;;;;3.90;74.71;101875.28;5183524;28;20072;-83
2022/12/02 01:14:25;;;;;;;3.28;3.08;;;;;;;4.06;74.29;101877.31;5179504;28;20091;-83
2022/12/02 01:16:55;;;;;;;3.70;3.45;;;;;;;4.10;74.20;101873.91;5180153;28;20030;-82
2022/12/02 01:19:26;;;;;;;3.20;2.90;;;;;;;4.10;74.26;101880.84;5195566;28;20056;-83
2022/12/02 01:21:57;;;;;;;1.13;1.13;;;;;;;4.08;73.03;101878.22;5184646;28;20553;-83
2022/12/02 01:24:28;;;;;;;2.50;2.30;;;;;;;4.01;73.63;101881.53;5176817;28;20056;-83
2022/12/02 01:26:59;;;;;;;7.15;4.07;;;;;;;3.85;73.57;101879.47;5169730;28;20413;-82
2022/12/02 01:29:31;;;;;;;2.15;2.05;;;;;;;3.91;74.47;101877.03;5143166;28;20456;-83
2022/12/02 01:32:01;;;;;;;1.73;1.70;;;;;;;4.01;74.20;101871.13;5194862;28;20060;-81
2022/12/02 01:34:32;;;;;;;2.22;2.13;;;;;;;4.08;74.24;101869.53;5181754;28;20052;-82
2022/12/02 01:37:03;;;;;;;5.88;4.10;;;;;;;4.14;73.92;101873.97;5195291;28;20036;-82
2022/12/02 01:39:34;;;;;;;2.28;2.08;;;;;;;3.98;73.89;101865.91;5167233;28;20111;-83
2022/12/02 01:42:05;;;;;;;3.08;2.88;;;;;;;3.98;74.49;101871.09;5181232;28;20034;-82
2022/12/02 01:44:36;;;;;;;5.65;5.00;;;;;;;3.99;74.70;101878.03;5201719;28;20096;-83
2022/12/02 01:47:07;;;;;;;3.22;2.92;;;;;;;4.05;74.16;101870.38;5182835;28;20045;-83
2022/12/02 01:49:37;;;;;;;3.65;3.35;;;;;;;4.13;74.21;101864.44;5194600;28;20045;-82
2022/12/02 01:52:08;;;;;;;3.55;2.35;;;;;;;3.95;73.67;101863.25;5178922;28;20071;-82
2022/12/02 01:54:38;;;;;;;4.57;4.20;;;;;;;3.97;73.60;101869.34;5183710;28;20033;-82
2022/12/02 01:57:12;;;;;;;2.05;1.92;;;;;;;3.99;74.23;101866.75;5191757;28;20083;-82
2022/12/02 01:59:43;;;;;;;1.83;1.73;;;;;;;4.04;74.93;101868.59;5186261;28;20044;-82
2022/12/02 02:02:36;;;;;;;1.80;1.73;;;;;;;4.12;74.09;101868.75;5203532;28;20025;-83
2022/12/02 02:05:14;;;;;;;4.70;4.30;;;;;;;3.83;73.89;101871.69;5197488;28;20018;-84
2022/12/02 02:07:51;;;;;;;2.53;2.38;;;;;;;3.84;74.11;101876.03;5200805;28;20056;-82
2022/12/02 02:10:23;;;;;;;1.90;1.80;;;;;;;4.03;74.46;101874.66;5183505;28;20068;-83
2022/12/02 02:12:54;;;;;;;1.02;1.02;;;;;;;3.78;74.43;101881.97;5201481;28;20296;-81
2022/12/02 02:15:25;;;;;;;1.85;1.75;;;;;;;3.94;74.87;101870.16;5188402;28;20068;-83
2022/12/02 02:17:57;;;;;;;3.95;3.65;;;;;;;3.98;73.53;101873.69;5200348;28;20068;-84
2022/12/02 02:20:28;;;;;;;3.50;3.30;;;;;;;4.10;74.31;101870.44;5193379;28;20104;-83
2022/12/02 02:23:05;;;;;;;4.28;3.13;;;;;;;4.08;73.75;101861.75;5184600;28;20040;-82
2022/12/02 02:25:49;;;;;;;1.35;1.30;;;;;;;4.10;73.86;101860.06;5180456;28;20036;-83
2022/12/02 02:28:22;;;;;;;3.25;2.95;;;;;;;4.20;74.38;101858.50;5167644;28;20183;-83
2022/12/02 02:30:55;;;;;;;2.75;2.13;;;;;;;3.97;73.58;101848.56;5167257;28;20061;-83
2022/12/02 02:33:29;;;;;;;3.13;1.95;;;;;;;4.07;74.27;101841.81;5185678;28;20399;-82
2022/12/02 02:36:01;;;;;;;2.70;2.00;;;;;;;4.14;74.24;101840.19;5199267;28;20097;-83
2022/12/02 02:38:33;;;;;;;3.22;2.97;;;;;;;4.02;73.77;101836.53;5197397;28;20046;-83
2022/12/02 02:41:05;;;;;;;1.57;1.53;;;;;;;4.09;73.69;101838.38;5198154;28;20049;-82
2022/12/02 02:43:37;;;;;;;3.22;1.98;;;;;;;4.04;74.14;101840.03;5200377;28;20493;-83
2022/12/02 02:46:08;;;;;;;2.50;2.28;;;;;;;4.19;72.87;101838.56;5190025;28;20053;-82
2022/12/02 02:48:40;;;;;;;2.15;2.05;;;;;;;4.18;73.38;101836.78;5219492;23;20595;-90
2022/12/02 02:51:12;;;;;;;1.95;1.85;;;;;;;4.05;73.84;101843.53;5205750;28;20105;-90
2022/12/02 02:53:43;;;;;;;2.22;2.05;;;;;;;4.16;73.64;101839.38;5167005;28;20037;-89
2022/12/02 02:56:14;;;;;;;3.03;2.83;;;;;;;4.11;73.68;101830.63;5172665;28;20034;-90
2022/12/02 02:58:44;;;;;;;0.88;0.88;;;;;;;4.09;73.09;101822.81;5163602;28;20049;-89
2022/12/02 03:01:19;;;;;;;1.70;1.63;;;;;;;4.10;72.59;101818.50;5166049;28;20041;-90
2022/12/02 03:03:57;;;;;;;4.05;2.38;;;;;;;4.04;73.11;101821.84;5151350;28;20103;-91
2022/12/02 03:06:31;;;;;;;2.08;1.98;;;;;;;4.13;72.94;101822.88;5151035;28;20120;-89
2022/12/02 03:09:06;;;;;;;1.92;1.83;;;;;;;4.01;73.47;101816.59;5168478;28;20046;-90
2022/12/02 03:11:39;;;;;;;2.33;2.22;;;;;;;3.97;73.80;101820.00;5158555;28;20058;-89
2022/12/02 03:14:12;;;;;;;3.38;2.75;;;;;;;3.91;72.79;101822.50;5131399;28;20042;-89
2022/12/02 03:16:44;;;;;;;2.28;2.13;;;;;;;3.98;73.71;101823.47;5147578;28;20136;-88
2022/12/02 03:19:16;;;;;;;3.28;3.05;;;;;;;4.17;73.29;101822.09;5146698;28;20199;-90
2022/12/02 03:21:47;;;;;;;5.22;2.75;;;;;;;4.16;72.70;101812.53;5146895;28;20037;-89
2022/12/02 03:24:18;;;;;;;1.50;1.45;;;;;;;4.30;73.01;101815.38;5143638;28;20038;-89
2022/12/02 03:26:49;;;;;;;2.13;2.03;;;;;;;4.13;73.65;101802.09;5140056;28;20157;-89
2022/12/02 03:29:20;;;;;;;11.55;3.67;;;;;;;4.08;73.97;101810.69;5171393;28;20045;-91
2022/12/02 03:31:51;;;;;;;3.35;1.60;;;;;;;4.08;73.48;101809.81;5193256;28;20017;-87
2022/12/02 03:34:22;;;;;;;2.58;2.13;;;;;;;4.09;73.94;101807.22;5178116;28;20037;-89
2022/12/02 03:36:52;;;;;;;1.42;1.38;;;;;;;3.99;73.77;101797.53;5174550;28;20072;-88
2022/12/02 03:39:23;;;;;;;4.57;2.65;;;;;;;4.04;73.69;101798.47;5188404;28;20048;-88
2022/12/02 03:41:54;;;;;;;3.08;2.88;;;;;;;4.09;74.44;101788.19;5169409;28;20032;-88
2022/12/02 03:44:25;;;;;;;2.47;2.28;;;;;;;3.99;74.10;101791.47;5168383;28;20045;-88
2022/12/02 03:46:56;;;;;;;2.58;2.38;;;;;;;4.03;73.00;101788.94;5136504;28;20460;-88
2022/12/02 03:49:28;;;;;;;1.45;1.40;;;;;;;4.02;73.69;101782.00;5154785;28;20042;-87
2022/12/02 03:51:59;;;;;;;2.05;1.95;;;;;;;4.01;72.88;101780.25;5168477;28;20064;-86
2022/12/02 03:54:30;;;;;;;3.45;3.25;;;;;;;4.17;73.37;101780.53;5151503;28;20053;-87
2022/12/02 03:57:04;;;;;;;2.58;2.38;;;;;;;4.12;72.98;101775.25;5156345;28;20026;-88
2022/12/02 03:59:35;;;;;;;1.23;1.20;;;;;;;4.16;73.87;101770.97;5167975;28;20053;-87
2022/12/02 04:02:06;;;;;;;2.72;1.77;;;;;;;4.24;73.37;101771.97;5152018;28;20304;-89
2022/12/02 04:04:36;;;;;;;1.48;1.35;;;;;;;4.19;74.13;101773.59;5136273;28;20137;-87
2022/12/02 04:07:07;;;;;;;0.82;0.82;;;;;;;4.08;73.89;101763.94;5141405;28;20053;-88
2022/12/02 04:09:38;;;;;;;2.10;1.92;;;;;;;4.02;73.90;101768.16;5146627;28;20042;-88
2022/12/02 04:12:08;;;;;;;1.77;1.67;;;;;;;4.06;74.17;101768.22;5156321;28;20460;-89
2022/12/02 04:14:39;;;;;;;4.13;2.88;;;;;;;4.15;74.36;101770.09;5155422;28;20076;-89
2022/12/02 04:17:10;;;;;;;1.88;1.77;;;;;;;4.13;73.90;101764.00;5175017;28;20120;-88
2022/12/02 04:19:43;;;;;;;3.20;3.00;;;;;;;4.12;73.48;101764.84;5151994;28;20407;-88
2022/12/02 04:22:14;;;;;;;;;;;;;;;4.08;73.77;101769.13;5137816;28;20031;-88
2022/12/02 04:24:44;;;;;;;1.77;1.67;;;;;;;4.07;74.10;101762.19;5176533;28;19913;-87
2022/12/02 04:27:15;;;;;;;1.17;1.17;;;;;;;4.21;74.03;101759.81;5154984;28;20026;-88
2022/12/02 04:29:46;;;;;;;1.42;1.38;;;;;;;4.12;73.62;101764.84;5180353;28;20120;-87
2022/12/02 04:32:17;;;;;;;2.55;2.05;;;;;;;4.25;73.23;101763.34;5147834;28;20034;-88
2022/12/02 04:34:47;;;;;;;7.72;4.00;;;;;;;4.14;73.79;101765.72;5137875;28;20041;-87
2022/12/02 04:37:18;;;;;;;2.28;2.17;;;;;;;4.23;73.63;101768.47;5169221;28;20018;-88
2022/12/02 04:39:48;;;;;;;3.83;3.55;;;;;;;4.20;73.52;101772.75;5166785;28;20037;-87
2022/12/02 04:42:19;;;;;;;3.25;3.05;;;;;;;4.21;74.17;101770.22;5171659;28;20037;-89
2022/12/02 04:44:50;;;;;;;2.40;2.28;;;;;;;4.24;74.32;101758.97;5173387;28;20025;-88
2022/12/02 04:47:21;;;;;;;7.65;3.65;;;;;;;4.25;74.11;101755.53;5154832;28;20041;-89
2022/12/02 04:49:52;;;;;;;3.53;3.22;;;;;;;4.23;73.52;101749.44;5155918;28;20033;-88
2022/12/02 04:52:22;;;;;;;4.90;4.60;;;;;;;4.19;74.04;101751.13;5155389;28;20373;-88
2022/12/02 04:54:53;;;;;;;4.00;3.63;;;;;;;4.23;73.61;101757.25;5180048;28;20496;-89
2022/12/02 04:57:23;;;;;;;2.65;2.08;;;;;;;4.22;73.63;101745.94;5153860;28;20080;-88
2022/12/02 04:59:54;;;;;;;3.55;3.25;;;;;;;4.35;73.72;101751.34;5141617;28;20026;-89
2022/12/02 05:02:25;;;;;;;5.60;4.00;;;;;;;4.23;73.45;101757.25;5172426;28;20064;-88
2022/12/02 05:04:55;;;;;;;3.15;2.95;;;;;;;4.13;73.65;101745.84;5169917;28;20602;-88
2022/12/02 05:07:27;;;;;;;2.88;2.30;;;;;;;4.16;73.60;101742.41;5182485;28;20030;-88
2022/12/02 05:09:57;;;;;;;3.58;3.28;;;;;;;3.80;74.09;101730.53;5171211;28;20047;-88
2022/12/02 05:12:28;;;;;;;1.95;1.65;;;;;;;4.01;74.32;101730.03;5153784;28;20057;-88
2022/12/02 05:14:58;;;;;;;1.75;1.63;;;;;;;3.98;74.52;101730.88;5170931;28;20584;-88
2022/12/02 05:17:29;;;;;;;2.70;2.55;;;;;;;4.01;74.27;101724.84;5153896;28;20036;-88
2022/12/02 05:20:00;;;;;;;5.97;3.95;;;;;;;3.99;74.66;101721.34;5167797;28;20060;-87
2022/12/02 05:22:31;;;;;;;4.50;4.15;;;;;;;4.00;74.88;101718.78;5168821;28;26476;-89
2022/12/02 05:25:02;;;;;;;5.13;1.65;;;;;;;3.94;74.25;101721.25;5171391;28;20029;-89
2022/12/02 05:27:32;;;;;;;3.25;2.70;;;;;;;3.96;75.09;101722.16;5167492;28;20042;-88
2022/12/02 05:30:04;;;;;;;4.13;3.83;;;;;;;4.01;74.20;101723.09;5188032;28;20021;-88
2022/12/02 05:32:35;;;;;;;1.38;1.38;;;;;;;4.06;74.27;101726.66;5165823;28;20034;-89
2022/12/02 05:35:18;;;;;;;;;;;;;;;;;;;;;
2022/12/02 05:37:55;;;;;;;2.28;2.17;;;;;;;3.98;74.42;101728.28;5197974;28;20072;-87
2022/12/02 05:40:26;;;;;;;4.32;3.53;;;;;;;3.98;75.40;101725.66;5171761;28;20053;-87
2022/12/02 05:43:01;;;;;;;18.05;3.22;;;;;;;4.07;75.10;101718.03;5190519;28;20061;-90
2022/12/02 05:45:31;;;;;;;4.00;3.63;;;;;;;4.07;74.70;101736.22;5176878;28;20039;-87
2022/12/02 05:48:04;;;;;;;2.00;1.90;;;;;;;3.96;74.77;101726.50;5184354;28;20132;-88
2022/12/02 05:50:35;;;;;;;1.35;1.25;;;;;;;3.93;74.69;101728.19;5185675;28;20486;-87
2022/12/02 05:53:15;;;;;;;3.40;3.13;;;;;;;3.95;75.34;101720.41;5169545;28;20049;-89
2022/12/02 05:55:56;;;;;;;;;;;;;;;;;;;;;
2022/12/02 05:58:32;;;;;;;4.45;4.15;;;;;;;4.09;74.50;101716.31;5147762;28;20038;-88
2022/12/02 06:01:30;;;;;;;7.82;5.38;;;;;;;4.04;74.69;101711.91;5151089;28;20105;-88
2022/12/02 06:04:15;;;;;;;4.50;3.83;;;;;;;3.97;74.92;101708.34;5155463;28;20065;-84
2022/12/02 06:06:46;;;;;;;4.70;3.40;;;;;;;4.03;75.50;101703.22;5181856;28;20030;-83
2022/12/02 06:09:23;;;;;;;3.80;3.53;;;;;;;4.03;74.53;101702.38;5190316;28;20037;-83
2022/12/02 06:11:54;;;;;;;3.92;3.17;;;;;;;3.87;74.82;101709.03;5170048;28;20251;-86
2022/12/02 06:14:30;;;;;;;2.33;2.22;;;;;;;3.86;75.43;101712.47;5183548;28;20052;-84
2022/12/02 06:17:09;;;;;;;3.03;2.42;;;;;;;3.85;75.17;101708.13;5168736;28;20100;-83
2022/12/02 06:19:52;;;;;;;2.38;1.90;;;;;;;3.87;75.78;101707.31;5161840;28;20112;-84
2022/12/02 06:22:28;;;;;;;1.83;1.73;;;;;;;3.91;74.55;101709.09;5177479;28;20025;-85
2022/12/02 06:25:02;;;;;;;1.88;1.77;;;;;;;4.14;74.76;101706.00;5163506;28;20018;-84
2022/12/02 06:27:33;;;;;;;7.85;3.08;;;;;;;4.05;75.10;101711.94;5174992;28;20072;-84
2022/12/02 06:30:04;;;;;;;5.18;2.17;;;;;;;3.87;75.98;101712.53;5202634;28;20843;-83
2022/12/02 06:32:41;;;;;;;4.35;3.95;;;;;;;3.89;74.93;101707.34;5165563;28;20045;-84
2022/12/02 06:35:37;;;;;;;2.00;1.90;;;;;;;3.97;74.77;101716.13;5174495;28;20029;-83
2022/12/02 06:38:24;;;;;;;2.22;2.13;;;;;;;3.97;75.69;101715.28;5182204;28;20084;-85
2022/12/02 06:40:54;;;;;;;1.38;1.27;;;;;;;4.02;75.34;101711.00;5182849;28;20026;-84
2022/12/02 06:43:29;;;;;;;2.65;2.45;;;;;;;3.91;75.62;101709.09;5182299;28;20033;-87
2022/12/02 06:46:00;;;;;;;12.63;4.13;;;;;;;4.01;74.11;101720.50;5151919;28;20037;-85
2022/12/02 06:48:33;;;;;;;3.53;3.22;;;;;;;3.99;75.01;101713.53;5156067;28;20321;-85
2022/12/02 06:51:14;;;;;;;2.35;2.25;;;;;;;3.93;75.67;101709.13;5169249;28;20057;-86
2022/12/02 06:53:48;;;;;;;1.85;1.75;;;;;;;4.06;74.81;101713.69;5176741;28;20041;-88
2022/12/02 06:56:24;;;;;;;3.10;2.90;;;;;;;4.09;75.36;101711.13;5176916;28;20114;-85
2022/12/02 06:59:02;;;;;;;2.78;2.58;;;;;;;4.01;75.50;101707.53;5184904;28;20061;-86
2022/12/02 07:01:42;;;;;;;7.68;2.97;;;;;;;3.99;75.51;101714.44;5188324;28;20030;-85
2022/12/02 07:04:40;;;;;;;3.38;2.15;;;;;;;3.97;75.31;101713.53;5136310;28;20476;-85
2022/12/02 07:07:19;;;;;;;1.95;1.85;;;;;;;4.00;75.51;101713.59;5173157;28;20041;-86
2022/12/02 07:09:59;;;;;;;5.18;2.55;;;;;;;3.96;75.57;101711.78;5182386;28;20687;-87
2022/12/02 07:12:34;;;;;;;1.65;1.55;;;;;;;3.95;75.65;101710.03;5172844;28;20025;-86
2022/12/02 07:15:28;;;;;;;12.98;9.15;;;;;;;3.93;75.90;101711.72;5178858;28;20035;-86
2022/12/02 07:18:09;;;;;;;2.28;2.17;;;;;;;3.88;75.64;101708.19;5159797;28;20600;-85
2022/12/02 07:20:42;;;;;;;2.45;2.35;;;;;;;3.90;76.02;101711.69;5158640;28;20032;-86
2022/12/02 07:23:13;;;;;;;3.85;3.47;;;;;;;3.97;75.79;101708.34;5158754;28;20042;-86
2022/12/02 07:25:50;;;;;;;5.40;4.88;;;;;;;3.97;75.64;101702.28;5186209;28;20124;-86
2022/12/02 07:28:37;;;;;;;2.22;2.13;;;;;;;4.07;75.30;101715.44;5188923;28;20094;-86
2022/12/02 07:31:25;;;;;;;3.00;2.80;;;;;;;4.04;76.00;101714.50;5163788;28;20029;-85
2022/12/02 07:33:57;;;;;;;3.97;3.20;;;;;;;4.07;75.64;101710.25;5157061;28;20048;-85
2022/12/02 07:36:33;;;;;;;3.45;2.40;;;;;;;4.01;75.85;101715.31;5155708;28;20046;-86
2022/12/02 07:39:04;;;;;;;4.65;4.35;;;;;;;4.07;76.07;101710.25;5170593;28;20040;-85
2022/12/02 07:41:34;;;;;;;3.17;2.97;;;;;;;4.01;76.11;101710.13;5163760;28;20039;-85
2022/12/02 07:44:05;;;;;;;5.32;4.10;;;;;;;4.02;75.99;101706.69;5161557;28;20113;-87
2022/12/02 07:46:36;;;;;;;3.10;2.92;;;;;;;4.07;76.10;101710.25;5183095;28;20040;-87
2022/12/02 07:49:07;;;;;;;2.28;2.17;;;;;;;3.97;76.23;101704.88;5188637;28;20048;-88
2022/12/02 07:51:37;;;;;;;4.20;3.80;;;;;;;3.98;75.96;101699.69;5166147;28;20090;-87
2022/12/02 07:54:11;;;;;;;2.08;1.85;;;;;;;4.00;76.59;101699.72;5171155;28;20112;-87
2022/12/02 07:56:45;;;;;;;2.60;2.40;;;;;;;4.05;75.56;101706.75;5151941;28;20389;-87
2022/12/02 07:59:16;;;;;;;4.80;4.40;;;;;;;4.02;75.85;101701.47;5159593;28;20041;-86
2022/12/02 08:01:53;;;;;;;4.95;2.60;;;;;;;4.02;76.29;101701.47;5173495;28;20030;-84
2022/12/02 08:04:26;;;;;;;2.35;2.17;;;;;;;4.07;76.70;101697.25;5143098;28;20511;-85
2022/12/02 08:07:00;;;;;;;3.15;2.95;;;;;;;4.02;75.93;101696.28;5169211;28;20030;-86
2022/12/02 08:09:30;;;;;;;1.83;1.75;;;;;;;4.03;77.01;101695.44;5166315;28;20087;-84
2022/12/02 08:12:01;;;;;;;4.47;4.05;;;;;;;4.09;76.13;101692.06;5169245;28;20373;-85
2022/12/02 08:14:32;;;;;;;2.95;2.75;;;;;;;3.96;76.48;101690.16;5167125;28;20030;-83
2022/12/02 08:17:06;;;;;;;2.13;1.40;;;;;;;3.99;76.73;101695.38;5169298;28;20025;-85
2022/12/02 08:19:42;;;;;;;1.05;1.05;;;;;;;3.99;76.49;101693.66;5129845;28;20724;-86
2022/12/02 08:22:18;;;;;;;7.43;3.42;;;;;;;3.99;76.22;101693.66;5160873;28;20037;-85
2022/12/02 08:24:48;;;;;;;3.55;3.35;;;;;;;3.76;77.18;101688.94;5181245;28;20097;-86
2022/12/02 08:27:19;;;;;;;0.73;0.70;;;;;;;3.81;76.85;101695.94;5161996;28;20080;-85
2022/12/02 08:29:59;;;;;;;2.70;2.50;;;;;;;3.99;76.38;101695.38;5153599;28;20112;-88
2022/12/02 08:32:29;;;;;;;1.52;1.45;;;;;;;3.91;76.96;101692.66;5151188;28;20037;-88
2022/12/02 08:35:03;;;;;;;3.47;3.28;;;;;;;4.09;76.54;101700.72;5170884;28;20047;-89
2022/12/02 08:37:39;;;;;;;2.78;2.67;;;;;;;4.01;76.12;101691.94;5173248;28;20129;-88
2022/12/02 08:40:15;;;;;;;3.08;2.88;;;;;;;4.05;77.13;101692.91;5161645;28;20393;-89
2022/12/02 08:42:46;;;;;;;2.22;2.13;;;;;;;3.92;77.45;101694.41;5163514;28;20029;-88
2022/12/02 08:45:22;;;;;;;4.00;3.58;;;;;;;3.97;77.02;101691.91;5184351;28;20036;-88
2022/12/02 08:47:53;;;;;;;3.15;2.95;;;;;;;3.97;77.16;101697.94;5166714;28;20052;-88
2022/12/02 08:50:24;;;;;;;3.33;3.05;;;;;;;3.97;77.88;101692.75;5170460;28;20021;-87
2022/12/02 08:52:54;;;;;;;5.35;4.80;;;;;;;3.99;76.94;101692.78;5160624;28;20054;-88
2022/12/02 08:55:29;;;;;;;3.53;3.13;;;;;;;3.99;77.28;101690.19;5184134;28;20031;-88
2022/12/02 08:58:00;;;;;;;2.95;2.75;;;;;;;3.97;77.33;101690.16;5167179;28;20042;-88
2022/12/02 09:00:31;;;;;;;4.63;3.80;;;;;;;4.03;76.67;101698.03;5171738;28;20033;-89
2022/12/02 09:03:01;;;;;;;6.55;6.03;;;;;;;4.05;76.97;101695.50;5186234;28;20048;-90
2022/12/02 09:05:33;;;;;;;3.50;3.28;;;;;;;3.90;77.61;101690.91;5180490;28;20021;-88
2022/12/02 09:08:04;;;;;;;2.72;2.58;;;;;;;4.05;77.08;101691.16;5170844;28;20448;-89
2022/12/02 09:10:34;;;;;;;4.35;4.00;;;;;;;3.98;78.35;101697.09;5183660;28;20014;-89
2022/12/02 09:13:13;;;;;;;4.63;4.32;;;;;;;3.84;78.80;101696.88;5160032;28;20071;-90
2022/12/02 09:15:48;;;;;;;3.55;3.35;;;;;;;3.98;78.17;101691.03;5173671;28;20044;-86
2022/12/02 09:18:23;;;;;;;2.20;2.10;;;;;;;3.94;78.79;101692.69;5196354;28;20106;-87
2022/12/02 09:21:00;;;;;;;5.18;4.70;;;;;;;3.93;78.73;101693.53;5185521;28;20105;-88
2022/12/02 09:23:31;;;;;;;15.82;5.63;;;;;;;4.03;78.18;101692.84;5175744;28;20128;-88
2022/12/02 09:26:04;;;;;;;3.40;3.20;;;;;;;3.90;79.22;101693.50;5153630;28;20478;-88
2022/12/02 09:28:35;;;;;;;1.58;1.50;;;;;;;3.95;78.65;101694.44;5167436;28;20095;-88
2022/12/02 09:31:17;;;;;;;3.50;3.30;;;;;;;3.87;79.14;101690.84;5165103;28;20029;-87
2022/12/02 09:33:50;;;;;;;4.05;3.65;;;;;;;3.83;78.88;101686.47;5165172;28;20044;-90
2022/12/02 09:36:26;;;;;;;3.92;3.22;;;;;;;4.00;78.47;101692.81;5194069;28;20136;-87
2022/12/02 09:38:56;;;;;;;2.47;2.30;;;;;;;3.93;78.44;101686.66;5172549;28;20116;-83
2022/12/02 09:41:27;;;;;;;3.58;3.38;;;;;;;4.01;78.08;101688.47;5162178;28;20036;-85
2022/12/02 09:43:58;;;;;;;1.90;1.80;;;;;;;4.03;78.07;101684.19;5189086;28;20041;-86
2022/12/02 09:46:28;;;;;;;10.52;3.72;;;;;;;3.98;78.45;101688.41;5164614;28;20113;-84
2022/12/02 09:48:59;;;;;;;4.90;4.50;;;;;;;3.88;79.03;101688.31;5162788;28;20100;-85
2022/12/02 09:51:31;;;;;;;10.20;7.63;;;;;;;4.05;78.04;101678.16;5161976;28;20052;-84
2022/12/02 09:54:02;;;;;;;4.40;4.10;;;;;;;4.03;78.57;101692.00;5164294;28;20113;-88
2022/12/02 09:56:34;;;;;;;4.03;3.78;;;;;;;3.99;78.51;101680.69;5180641;28;20017;-86
2022/12/02 09:59:12;;;;;;;5.28;4.53;;;;;;;4.04;78.48;101679.00;5169220;28;21006;-85
2022/12/02 10:01:55;;;;;;;5.90;5.40;;;;;;;4.09;78.00;101682.53;5167021;28;20080;-86
2022/12/02 10:04:33;;;;;;;2.55;2.45;;;;;;;4.17;78.20;101679.22;5167024;28;20366;-88
2022/12/02 10:07:11;;;;;;;;;;;;;;;4.18;78.14;101678.34;5171160;28;20087;-88
2022/12/02 10:09:41;;;;;;;5.38;4.35;;;;;;;4.02;78.58;101680.72;5169008;28;20348;-88
2022/12/02 10:12:12;;;;;;;4.75;4.28;;;;;;;4.02;77.97;101675.50;5168356;28;20091;-86
2022/12/02 10:14:49;;;;;;;2.88;2.67;;;;;;;4.06;78.07;101682.50;5168869;28;20056;-88
2022/12/02 10:17:20;;;;;;;3.50;3.20;;;;;;;4.06;77.75;101674.72;5166916;28;20667;-86
2022/12/02 10:19:51;;;;;;;2.00;1.90;;;;;;;3.97;78.31;101677.19;5184745;28;20110;-85
2022/12/02 10:22:25;;;;;;;3.25;2.80;;;;;;;4.05;77.48;101675.56;5164139;28;20555;-84
2022/12/02 10:24:55;;;;;;;4.53;2.83;;;;;;;3.96;78.05;101683.22;5170054;28;20079;-83
2022/12/02 10:27:33;;;;;;;1.73;1.63;;;;;;;3.84;77.51;101670.91;5175984;28;20123;-83
2022/12/02 10:30:19;;;;;;;6.07;3.95;;;;;;;3.87;77.43;101675.28;5168864;28;20029;-84
2022/12/02 10:33:05;;;;;;;4.25;3.42;;;;;;;3.93;76.90;101672.78;5180125;28;20463;-84
2022/12/02 10:35:48;;;;;;;1.27;1.25;;;;;;;3.88;76.95;101672.72;5186399;28;20056;-86
2022/12/02 10:38:39;;;;;;;2.20;2.05;;;;;;;3.94;76.89;101674.53;5173132;28;20044;-87
2022/12/02 10:41:19;;;;;;;2.35;2.15;;;;;;;3.99;77.31;101659.91;5171493;28;20240;-85
2022/12/02 10:43:53;;;;;;;3.60;3.30;;;;;;;4.01;77.00;101665.97;5208008;28;20136;-87
2022/12/02 10:46:25;;;;;;;;;;;;;;;3.90;77.23;101654.56;5186114;28;20397;-87
2022/12/02 10:49:14;;;;;;;6.57;4.28;;;;;;;3.97;77.12;101656.41;5185121;28;20442;-84
2022/12/02 10:51:44;;;;;;;2.83;2.20;;;;;;;3.96;77.46;101659.84;5168217;28;20082;-85
2022/12/02 10:54:22;;;;;;;1.50;1.42;;;;;;;4.03;76.16;101655.63;5164015;28;20120;-85
2022/12/02 10:56:55;;;;;;;2.90;2.70;;;;;;;3.97;76.24;101650.34;5173125;28;20021;-86
2022/12/02 10:59:26;;;;;;;1.85;1.75;;;;;;;4.08;75.77;101648.75;5181619;28;20037;-84
2022/12/02 11:01:58;;;;;;;2.60;2.40;;;;;;;3.94;76.87;101646.84;5178859;28;20143;-84
2022/12/02 11:04:29;;;;;;;2.30;2.15;;;;;;;4.08;76.74;101638.38;5149482;28;20072;-85
2022/12/02 11:06:59;;;;;;;3.47;2.15;;;;;;;4.04;76.54;101644.41;5155761;28;20034;-87
2022/12/02 11:09:30;;;;;;;4.68;4.28;;;;;;;3.99;76.25;101639.13;5162718;28;20041;-87
2022/12/02 11:12:32;;;;;;;0.88;0.88;;;;;;;3.98;76.03;101636.50;5154350;28;20029;-87
2022/12/02 11:15:37;;;;;;;1.15;1.15;;;;;;;4.05;76.16;101634.03;5166975;28;20035;-83
2022/12/02 11:18:30;;;;;;;1.98;1.83;;;;;;;3.97;76.57;101640.81;5157577;28;20041;-84
2022/12/02 11:21:00;;;;;;;1.75;1.65;;;;;;;3.86;77.30;101632.88;5166585;28;20100;-85
2022/12/02 11:23:32;;;;;;;1.88;1.77;;;;;;;3.94;76.68;101630.38;5167854;28;20049;-84
2022/12/02 11:26:04;;;;;;;2.95;2.42;;;;;;;3.83;76.08;101629.34;5163612;28;20109;-85
2022/12/02 11:29:07;;;;;;;4.13;3.83;;;;;;;3.80;76.10;101631.91;5177845;28;20530;-84
2022/12/02 11:31:38;;;;;;;0.60;0.60;;;;;;;3.84;76.73;101626.78;5178172;28;20013;-83
2022/12/02 11:34:24;;;;;;;1.20;1.20;;;;;;;3.93;76.27;101637.31;5163116;28;20041;-83
2022/12/02 11:37:28;;;;;;;1.88;1.63;;;;;;;3.87;76.60;101633.72;5194023;28;20025;-83
2022/12/02 11:40:10;;;;;;;2.90;2.70;;;;;;;3.91;76.79;101630.34;5163329;28;20041;-83
2022/12/02 11:42:42;;;;;;;2.45;2.28;;;;;;;3.99;76.72;101626.16;5164939;28;20790;-85
2022/12/02 11:45:16;;;;;;;2.23;1.90;;;;;;;3.90;76.46;101628.59;5150634;28;20075;-83
2022/12/02 11:47:52;;;;;;;2.53;2.25;;;;;;;3.88;75.93;101626.00;5201470;28;20908;-83
2022/12/02 11:50:38;;;;;;;0.88;0.88;;;;;;;3.92;75.79;101613.94;5170619;28;20056;-84
2022/12/02 11:53:16;;;;;;;6.30;2.05;;;;;;;3.98;76.07;101611.41;5183684;28;20064;-84
2022/12/02 11:55:49;;;;;;;0.65;0.65;;;;;;;3.84;76.16;101613.78;5181764;28;20029;-83
2022/12/02 11:58:28;;;;;;;4.78;2.92;;;;;;;3.77;76.42;101617.16;5171582;28;20435;-83
2022/12/02 12:01:24;;;;;;;1.65;1.55;;;;;;;3.89;75.30;101613.88;5151333;28;20149;-85
2022/12/02 12:03:57;;;;;;;1.25;1.25;;;;;;;3.94;76.25;101607.91;5169240;28;20167;-85
2022/12/02 12:10:21;;;;;;;1.55;1.48;;;;;;;4.09;75.81;101598.56;5092819;29;19926;-84
2022/12/02 12:13:23;;;;;;;3.55;3.25;;;;;;;4.10;76.78;101598.59;5109515;28;20048;-85
2022/12/02 12:16:03;;;;;;;12.93;3.00;;;;;;;3.99;75.89;101597.59;5159466;28;20029;-85